createdAt,value
2019-04-06T00:00:41.824Z,11.29
2019-04-06T00:03:12.131Z,11.17
2019-04-06T00:05:42.650Z,11.31
2019-04-06T00:08:12.943Z,11.24
2019-04-06T00:10:45.428Z,11.07
2019-04-06T00:13:15.847Z,11.04
2019-04-06T00:15:46.308Z,11.02
2019-04-06T00:18:16.591Z,11.02
2019-04-06T00:20:46.792Z,11.35
2019-04-06T00:23:17.048Z,11.13
2019-04-06T00:25:47.373Z,10.96
2019-04-06T00:28:17.675Z,11.00
2019-04-06T00:31:05.758Z,11.04
2019-04-06T00:33:36.191Z,11.15
2019-04-06T00:36:08.527Z,11.27
2019-04-06T00:38:38.901Z,11.31
2019-04-06T00:41:09.219Z,10.99
2019-04-06T00:43:40.614Z,10.79
2019-04-06T00:46:11.676Z,10.61
2019-04-06T00:48:42.018Z,10.51
2019-04-06T00:51:12.359Z,10.31
2019-04-06T00:53:42.614Z,10.40
2019-04-06T00:56:13.102Z,10.40
2019-04-06T00:58:43.396Z,10.40
2019-04-06T01:01:13.638Z,10.47
2019-04-06T01:03:43.922Z,10.54
2019-04-06T01:06:14.258Z,10.75
2019-04-06T01:08:44.510Z,10.54
2019-04-06T01:11:14.807Z,10.46
2019-04-06T01:13:45.098Z,10.19
2019-04-06T01:16:15.562Z,10.01
2019-04-06T01:18:45.880Z,9.82
2019-04-06T01:21:16.171Z,9.73
2019-04-06T01:23:46.594Z,9.64
2019-04-06T01:26:16.939Z,9.72
2019-04-06T01:28:47.358Z,9.78
2019-04-06T01:31:19.013Z,9.88
2019-04-06T01:33:51.309Z,9.79
2019-04-06T01:36:21.725Z,9.64
2019-04-06T01:38:51.999Z,9.56
2019-04-06T01:41:24.570Z,9.57
2019-04-06T01:43:55.228Z,9.57
2019-04-06T01:46:25.501Z,9.62
2019-04-06T01:48:55.868Z,9.48
2019-04-06T01:51:28.355Z,9.55
2019-04-06T01:53:58.624Z,9.55
2019-04-06T01:56:29.948Z,9.62
2019-04-06T01:59:00.174Z,9.54
2019-04-06T02:01:52.554Z,9.31
2019-04-06T02:04:22.810Z,9.49
2019-04-06T02:06:53.218Z,9.33
2019-04-06T02:09:23.529Z,9.27
2019-04-06T02:11:53.813Z,9.27
2019-04-06T02:14:24.044Z,9.29
2019-04-06T02:16:54.229Z,9.23
2019-04-06T02:19:24.513Z,9.39
2019-04-06T02:21:54.750Z,9.57
2019-04-06T02:24:25.030Z,9.72
2019-04-06T02:26:55.309Z,9.74
2019-04-06T02:29:25.587Z,9.24
2019-04-06T02:32:23.985Z,9.07
2019-04-06T02:35:05.886Z,9.08
2019-04-06T02:37:53.813Z,9.32
2019-04-06T02:40:30.129Z,9.59
2019-04-06T02:43:07.568Z,9.92
2019-04-06T02:45:38.368Z,10.02
2019-04-06T02:48:08.715Z,10.10
2019-04-06T02:50:38.981Z,9.97
2019-04-06T02:53:09.436Z,10.04
2019-04-06T02:55:40.620Z,10.04
2019-04-06T02:58:10.995Z,10.05
2019-04-06T03:00:41.237Z,9.95
2019-04-06T03:03:11.481Z,9.54
2019-04-06T03:05:41.752Z,9.07
2019-04-06T03:08:12.042Z,8.74
2019-04-06T03:10:43.225Z,8.93
2019-04-06T03:13:13.486Z,9.17
2019-04-06T03:15:44.001Z,9.10
2019-04-06T03:18:14.307Z,9.00
2019-04-06T03:20:45.687Z,8.94
2019-04-06T03:23:16.477Z,9.18
2019-04-06T03:25:49.042Z,9.09
2019-04-06T03:28:19.318Z,9.03
2019-04-06T03:30:50.200Z,8.94
2019-04-06T03:33:21.667Z,8.85
2019-04-06T03:35:52.586Z,8.94
2019-04-06T03:38:22.966Z,8.92
2019-04-06T03:40:53.179Z,8.80
2019-04-06T03:43:25.067Z,8.81
2019-04-06T03:45:55.948Z,8.55
2019-04-06T03:48:26.184Z,8.51
2019-04-06T03:50:57.102Z,8.33
2019-04-06T03:53:27.619Z,8.33
2019-04-06T03:55:58.037Z,8.40
2019-04-06T03:58:28.703Z,8.51
2019-04-06T04:00:59.043Z,8.57
2019-04-06T04:03:29.528Z,8.57
2019-04-06T04:05:59.730Z,8.44
2019-04-06T04:08:30.103Z,8.48
2019-04-06T04:11:00.635Z,8.45
2019-04-06T04:13:31.360Z,8.41
2019-04-06T04:16:01.612Z,8.58
2019-04-06T04:18:32.065Z,8.51
2019-04-06T04:21:02.307Z,8.46
2019-04-06T04:23:32.604Z,8.49
2019-04-06T04:26:02.815Z,8.35
2019-04-06T04:28:33.068Z,8.35
2019-04-06T04:31:03.253Z,8.39
2019-04-06T04:33:33.799Z,8.46
2019-04-06T04:36:05.120Z,8.63
2019-04-06T04:38:35.314Z,8.77
2019-04-06T04:41:05.575Z,8.82
2019-04-06T04:43:35.806Z,8.95
2019-04-06T04:46:06.649Z,9.19
2019-04-06T04:48:36.862Z,9.46
2019-04-06T04:51:10.167Z,9.51
2019-04-06T04:53:40.527Z,9.46
2019-04-06T04:56:10.759Z,9.93
2019-04-06T04:58:41.127Z,9.89
2019-04-06T05:01:11.487Z,10.06
2019-04-06T05:03:41.989Z,10.52
2019-04-06T05:06:13.143Z,10.79
2019-04-06T05:08:43.638Z,11.21
2019-04-06T05:11:13.911Z,11.52
2019-04-06T05:13:44.316Z,11.57
2019-04-06T05:16:22.451Z,11.35
2019-04-06T05:18:52.671Z,12.00
2019-04-06T05:21:22.872Z,12.63
2019-04-06T05:23:53.121Z,12.26
2019-04-06T05:26:23.404Z,12.47
2019-04-06T05:28:53.661Z,12.43
2019-04-06T05:31:23.943Z,12.75
2019-04-06T05:33:54.225Z,13.02
2019-04-06T05:36:24.658Z,13.36
2019-04-06T05:38:55.158Z,13.51
2019-04-06T05:41:25.457Z,13.08
2019-04-06T05:43:55.730Z,13.60
2019-04-06T05:46:26.258Z,14.28
2019-04-06T05:48:56.555Z,15.00
2019-04-06T05:51:26.765Z,16.02
2019-04-06T05:53:57.132Z,16.71
2019-04-06T05:56:27.393Z,17.56
2019-04-06T05:58:57.690Z,17.72
2019-04-06T06:01:27.938Z,18.14
2019-04-06T06:03:58.305Z,18.04
2019-04-06T06:06:28.551Z,18.17
2019-04-06T06:08:58.815Z,18.44
2019-04-06T06:11:29.154Z,18.77
2019-04-06T06:13:59.412Z,19.11
2019-04-06T06:16:29.654Z,19.34
2019-04-06T06:19:00.028Z,19.57
2019-04-06T06:21:30.335Z,19.97
2019-04-06T06:24:00.816Z,20.18
2019-04-06T06:26:32.545Z,20.39
2019-04-06T06:29:03.004Z,20.68
2019-04-06T06:31:33.255Z,20.97
2019-04-06T06:34:03.637Z,20.66
2019-04-06T06:36:33.991Z,20.86
2019-04-06T06:39:07.783Z,21.00
2019-04-06T06:41:38.317Z,20.42
2019-04-06T06:44:10.736Z,20.48
2019-04-06T06:46:41.210Z,21.02
2019-04-06T06:49:11.637Z,21.92
2019-04-06T06:51:42.069Z,22.03
2019-04-06T06:54:12.678Z,21.60
2019-04-06T06:56:43.072Z,21.62
2019-04-06T06:59:13.830Z,21.96
2019-04-06T07:01:44.291Z,22.69
2019-04-06T07:04:14.899Z,22.07
2019-04-06T07:06:45.142Z,21.26
2019-04-06T07:09:15.412Z,22.19
2019-04-06T07:11:46.137Z,22.77
2019-04-06T07:14:16.557Z,23.41
2019-04-06T07:16:46.773Z,23.14
2019-04-06T07:19:17.385Z,23.38
2019-04-06T07:21:47.698Z,23.58
2019-04-06T07:24:18.275Z,23.70
2019-04-06T07:26:50.665Z,24.08
2019-04-06T07:29:20.933Z,24.22
2019-04-06T07:31:51.778Z,24.01
2019-04-06T07:34:22.235Z,24.47
2019-04-06T07:36:52.583Z,21.71
2019-04-06T07:39:22.907Z,21.70
2019-04-06T07:41:53.185Z,21.02
2019-04-06T07:44:23.483Z,21.98
2019-04-06T07:46:59.418Z,23.05
2019-04-06T07:49:30.290Z,24.22
2019-04-06T07:52:00.788Z,23.85
2019-04-06T07:54:32.533Z,24.66
2019-04-06T07:57:03.370Z,24.69
2019-04-06T07:59:33.727Z,25.36
2019-04-06T08:02:04.813Z,25.36
2019-04-06T08:04:35.034Z,25.32
2019-04-06T08:07:06.351Z,25.19
2019-04-06T08:09:37.026Z,25.32
2019-04-06T08:12:08.424Z,25.17
2019-04-06T08:14:39.279Z,25.76
2019-04-06T08:17:10.046Z,26.42
2019-04-06T08:19:40.785Z,25.61
2019-04-06T08:22:11.331Z,25.61
2019-04-06T08:24:41.984Z,25.02
2019-04-06T08:27:12.273Z,23.93
2019-04-06T08:29:42.564Z,23.19
2019-04-06T08:32:14.475Z,23.19
2019-04-06T08:34:44.782Z,22.28
2019-04-06T08:37:15.241Z,21.40
2019-04-06T08:39:49.105Z,21.44
2019-04-06T08:42:19.492Z,20.82
2019-04-06T08:44:49.848Z,20.92
2019-04-06T08:47:20.766Z,20.68
2019-04-06T08:49:52.652Z,20.63
2019-04-06T08:52:24.188Z,20.37
2019-04-06T08:54:54.843Z,20.19
2019-04-06T08:57:25.060Z,21.07
2019-04-06T08:59:55.626Z,21.29
2019-04-06T09:02:28.433Z,21.26
2019-04-06T09:04:57.771Z,20.73
2019-04-06T09:07:28.104Z,20.88
2019-04-06T09:09:58.421Z,20.13
2019-04-06T09:12:28.692Z,20.10
2019-04-06T09:14:59.035Z,20.80
2019-04-06T09:17:29.316Z,20.92
2019-04-06T09:19:59.902Z,21.27
2019-04-06T09:22:30.426Z,21.41
2019-04-06T09:25:00.735Z,21.08
2019-04-06T09:27:31.233Z,21.75
2019-04-06T09:30:01.762Z,21.26
2019-04-06T09:32:33.340Z,20.73
2019-04-06T09:35:03.867Z,21.00
2019-04-06T09:37:34.305Z,20.84
2019-04-06T09:40:06.470Z,20.57
2019-04-06T09:42:46.424Z,20.80
2019-04-06T09:45:46.165Z,20.82
2019-04-06T09:48:31.014Z,21.01
2019-04-06T09:51:21.903Z,21.59
2019-04-06T09:54:10.142Z,21.36
2019-04-06T09:57:05.943Z,20.78
2019-04-06T09:59:43.287Z,20.68
2019-04-06T10:02:38.944Z,20.35
2019-04-06T10:05:28.185Z,21.17
2019-04-06T10:08:23.266Z,20.66
2019-04-06T10:11:03.523Z,20.68
2019-04-06T10:14:04.104Z,21.19
2019-04-06T10:16:52.168Z,20.53
2019-04-06T10:19:47.892Z,20.91
2019-04-06T10:22:38.674Z,20.86
2019-04-06T10:25:22.718Z,20.55
2019-04-06T10:28:20.030Z,21.27
2019-04-06T10:31:15.513Z,21.53
2019-04-06T10:34:07.751Z,21.20
2019-04-06T10:36:56.996Z,21.70
2019-04-06T10:39:58.448Z,21.26
2019-04-06T10:42:36.823Z,21.19
2019-04-06T10:45:19.450Z,21.49
2019-04-06T10:48:08.857Z,21.76
2019-04-06T10:50:57.472Z,21.78
2019-04-06T10:54:02.146Z,20.90
2019-04-06T10:57:03.818Z,21.42
2019-04-06T11:00:05.349Z,21.02
2019-04-06T11:03:04.030Z,20.55
2019-04-06T11:05:50.189Z,21.13
2019-04-06T11:08:27.205Z,21.02
2019-04-06T11:11:34.599Z,21.35
2019-04-06T11:14:16.974Z,21.66
2019-04-06T11:17:06.716Z,21.32
2019-04-06T11:19:52.419Z,21.82
2019-04-06T11:22:43.070Z,21.48
2019-04-06T11:25:22.167Z,20.89
2019-04-06T11:28:17.424Z,20.76
2019-04-06T11:31:21.295Z,21.48
2019-04-06T11:34:13.582Z,20.91
2019-04-06T11:37:01.545Z,21.20
2019-04-06T11:39:49.487Z,20.99
2019-04-06T11:42:44.853Z,21.20
2019-04-06T11:45:32.023Z,20.60
2019-04-06T11:48:21.345Z,21.23
2019-04-06T11:51:09.603Z,21.17
2019-04-06T11:54:01.597Z,21.10
2019-04-06T11:56:49.697Z,20.80
2019-04-06T11:59:48.038Z,20.82
2019-04-06T12:02:41.946Z,20.68
2019-04-06T12:05:31.546Z,20.90
2019-04-06T12:08:18.640Z,21.12
2019-04-06T12:11:11.100Z,21.56
2019-04-06T12:14:06.260Z,21.82
2019-04-06T12:17:02.246Z,21.31
2019-04-06T12:19:51.875Z,21.39
2019-04-06T12:22:41.380Z,20.85
2019-04-06T12:25:33.589Z,21.43
2019-04-06T12:28:26.593Z,20.93
2019-04-06T12:31:21.912Z,21.18
2019-04-06T12:34:07.236Z,21.20
2019-04-06T12:36:43.042Z,21.20
2019-04-06T12:39:22.325Z,21.36
2019-04-06T12:42:01.759Z,21.09
2019-04-06T12:44:51.106Z,21.23
2019-04-06T12:47:49.386Z,21.49
2019-04-06T12:50:30.743Z,21.14
2019-04-06T12:53:38.680Z,21.04
2019-04-06T12:56:35.502Z,20.98
2019-04-06T12:59:34.732Z,21.29
2019-04-06T13:02:16.418Z,21.10
2019-04-06T13:04:57.182Z,20.94
2019-04-06T13:07:49.805Z,21.60
2019-04-06T13:10:26.604Z,21.07
2019-04-06T13:13:15.783Z,21.16
2019-04-06T13:16:05.204Z,21.01
2019-04-06T13:18:48.740Z,21.18
2019-04-06T13:21:28.264Z,21.10
2019-04-06T13:24:06.720Z,21.40
2019-04-06T13:26:49.736Z,21.36
2019-04-06T13:29:45.371Z,20.95
2019-04-06T13:32:27.413Z,21.02
2019-04-06T13:35:10.238Z,21.54
2019-04-06T13:38:05.327Z,21.34
2019-04-06T13:41:07.590Z,21.29
2019-04-06T13:43:50.385Z,21.17
2019-04-06T13:46:39.993Z,21.16
2019-04-06T13:49:17.706Z,21.06
2019-04-06T13:52:03.397Z,20.88
2019-04-06T13:54:58.858Z,21.04
2019-04-06T13:57:57.266Z,20.79
2019-04-06T14:00:42.851Z,21.10
2019-04-06T14:03:32.046Z,21.14
2019-04-06T14:06:20.096Z,21.04
2019-04-06T14:09:08.490Z,20.76
2019-04-06T14:11:52.328Z,20.72
2019-04-06T14:14:47.674Z,20.35
2019-04-06T14:17:35.745Z,20.27
2019-04-06T14:20:13.847Z,20.03
2019-04-06T14:23:06.177Z,19.92
2019-04-06T14:26:04.696Z,19.86
2019-04-06T14:28:46.150Z,20.11
2019-04-06T14:31:47.751Z,20.26
2019-04-06T14:34:36.147Z,20.65
2019-04-06T14:37:25.397Z,20.81
2019-04-06T14:40:23.885Z,20.34
2019-04-06T14:43:19.242Z,20.50
2019-04-06T14:46:20.989Z,20.37
2019-04-06T14:49:31.248Z,19.95
2019-04-06T14:52:15.172Z,20.15
2019-04-06T14:55:01.247Z,20.19
2019-04-06T14:58:02.429Z,19.87
2019-04-06T15:00:44.492Z,20.07
2019-04-06T15:03:39.491Z,20.18
2019-04-06T15:06:31.745Z,20.08
2019-04-06T15:09:39.428Z,19.96
2019-04-06T15:12:46.991Z,19.72
2019-04-06T15:15:33.232Z,19.69
2019-04-06T15:18:25.498Z,19.95
2019-04-06T15:21:02.665Z,20.03
2019-04-06T15:23:52.661Z,20.13
2019-04-06T15:26:30.482Z,20.13
2019-04-06T15:29:35.330Z,19.58
2019-04-06T15:32:27.898Z,19.73
2019-04-06T15:35:09.118Z,19.67
2019-04-06T15:38:13.695Z,19.67
2019-04-06T15:40:54.223Z,19.92
2019-04-06T15:43:42.144Z,19.58
2019-04-06T15:46:47.834Z,19.26
2019-04-06T15:49:36.115Z,18.89
2019-04-06T15:52:28.050Z,19.23
2019-04-06T15:55:17.828Z,19.14
2019-04-06T15:58:10.721Z,18.89
2019-04-06T16:01:02.825Z,18.77
2019-04-06T16:03:50.751Z,18.73
2019-04-06T16:06:40.025Z,18.80
2019-04-06T16:09:25.781Z,18.30
2019-04-06T16:12:21.184Z,18.08
2019-04-06T16:14:58.351Z,17.83
2019-04-06T16:17:46.687Z,17.61
2019-04-06T16:20:35.919Z,17.53
2019-04-06T16:23:16.458Z,17.34
2019-04-06T16:26:01.576Z,16.84
2019-04-06T16:28:49.549Z,16.58
2019-04-06T16:31:38.973Z,16.48
2019-04-06T16:34:18.720Z,16.44
2019-04-06T16:37:11.077Z,16.47
2019-04-06T16:40:12.964Z,16.34
2019-04-06T16:43:08.094Z,16.58
2019-04-06T16:45:46.936Z,16.56
2019-04-06T16:48:39.053Z,16.28
2019-04-06T16:51:34.302Z,16.21
2019-04-06T16:54:26.572Z,15.83
2019-04-06T16:57:15.501Z,15.45
2019-04-06T16:59:55.768Z,15.46
2019-04-06T17:02:44.996Z,15.34
2019-04-06T17:05:40.642Z,15.41
2019-04-06T17:08:19.054Z,15.51
2019-04-06T17:11:00.740Z,15.32
2019-04-06T17:13:46.655Z,15.13
2019-04-06T17:16:39.049Z,15.20
2019-04-06T17:19:21.755Z,15.28
2019-04-06T17:22:05.705Z,15.12
2019-04-06T17:24:50.623Z,14.98
2019-04-06T17:27:46.858Z,14.90
2019-04-06T17:30:23.426Z,14.77
2019-04-06T17:33:14.371Z,14.72
2019-04-06T17:36:04.152Z,14.80
2019-04-06T17:39:08.606Z,14.66
2019-04-06T17:41:57.806Z,14.73
2019-04-06T17:44:46.531Z,14.51
2019-04-06T17:47:27.889Z,14.66
2019-04-06T17:50:08.691Z,14.43
2019-04-06T17:53:10.315Z,14.47
2019-04-06T17:56:09.732Z,14.26
2019-04-06T17:58:57.710Z,14.36
2019-04-06T18:01:47.906Z,14.64
2019-04-06T18:04:38.487Z,14.45
2019-04-06T18:07:34.279Z,14.59
2019-04-06T18:10:40.096Z,14.55
2019-04-06T18:13:28.548Z,14.51
2019-04-06T18:15:58.984Z,14.54
2019-04-06T18:18:30.623Z,14.45
2019-04-06T18:21:02.017Z,14.52
2019-04-06T18:23:33.267Z,14.44
2019-04-06T18:26:04.562Z,14.09
2019-04-06T18:28:34.971Z,14.06
2019-04-06T18:31:29.137Z,14.00
2019-04-06T18:34:00.517Z,14.04
2019-04-06T18:36:58.988Z,14.10
2019-04-06T18:39:29.457Z,13.95
2019-04-06T18:41:59.931Z,13.93
2019-04-06T18:44:30.998Z,13.86
2019-04-06T18:47:02.262Z,13.72
2019-04-06T18:49:33.151Z,13.32
2019-04-06T18:52:04.472Z,13.49
2019-04-06T18:54:34.942Z,13.52
2019-04-06T18:57:05.255Z,13.45
2019-04-06T18:59:36.061Z,13.54
2019-04-06T19:02:06.310Z,13.36
2019-04-06T19:04:36.692Z,13.30
2019-04-06T19:07:08.610Z,12.98
2019-04-06T19:09:39.653Z,13.16
2019-04-06T19:12:10.067Z,13.05
2019-04-06T19:14:42.070Z,13.03
2019-04-06T19:17:15.154Z,13.11
2019-04-06T19:19:45.571Z,13.25
2019-04-06T19:22:17.241Z,12.96
2019-04-06T19:24:49.948Z,13.01
2019-04-06T19:27:20.753Z,13.07
2019-04-06T19:29:53.159Z,13.05
2019-04-06T19:32:23.512Z,12.73
2019-04-06T19:34:53.754Z,12.69
2019-04-06T19:37:24.143Z,12.55
2019-04-06T19:39:55.838Z,12.58
2019-04-06T19:42:26.575Z,12.40
2019-04-06T19:44:56.873Z,12.28
2019-04-06T19:47:27.767Z,12.26
2019-04-06T19:49:58.271Z,12.33
2019-04-06T19:52:28.913Z,12.58
2019-04-06T19:55:02.779Z,12.40
2019-04-06T19:57:36.134Z,12.41
2019-04-06T20:00:09.079Z,12.21
2019-04-06T20:02:40.273Z,12.31
2019-04-06T20:05:10.764Z,12.32
2019-04-06T20:07:46.074Z,12.17
2019-04-06T20:10:20.824Z,12.20
2019-04-06T20:12:51.936Z,12.15
2019-04-06T20:15:24.328Z,12.08
2019-04-06T20:17:56.435Z,12.09
2019-04-06T20:20:26.930Z,12.17
2019-04-06T20:22:57.291Z,12.17
2019-04-06T20:25:29.574Z,12.28
2019-04-06T20:28:00.387Z,12.60
2019-04-06T20:30:30.702Z,12.81
2019-04-06T20:33:01.590Z,12.87
2019-04-06T20:35:32.013Z,12.83
2019-04-06T20:38:05.475Z,12.38
2019-04-06T20:40:37.947Z,12.27
2019-04-06T20:43:08.431Z,12.21
2019-04-06T20:45:39.027Z,12.08
2019-04-06T20:48:12.987Z,11.84
2019-04-06T20:50:43.907Z,11.95
2019-04-06T20:53:14.640Z,12.22
2019-04-06T20:55:45.215Z,12.10
2019-04-06T20:58:15.987Z,12.07
2019-04-06T21:00:50.585Z,11.95
2019-04-06T21:03:21.944Z,11.70
2019-04-06T21:05:53.543Z,11.80
2019-04-06T21:08:24.175Z,11.67
2019-04-06T21:10:54.498Z,11.66
2019-04-06T21:13:25.178Z,11.50
2019-04-06T21:15:55.522Z,11.51
2019-04-06T21:18:26.369Z,11.60
2019-04-06T21:20:56.755Z,11.55
2019-04-06T21:23:27.257Z,11.33
2019-04-06T21:25:58.242Z,11.26
2019-04-06T21:28:30.067Z,11.34
2019-04-06T21:31:02.275Z,11.38
2019-04-06T21:33:32.806Z,11.28
2019-04-06T21:36:05.181Z,11.31
2019-04-06T21:38:36.092Z,11.32
2019-04-06T21:41:10.126Z,10.96
2019-04-06T21:43:43.400Z,10.83
2019-04-06T21:46:15.758Z,10.74
2019-04-06T21:48:48.118Z,10.95
2019-04-06T21:51:20.140Z,11.18
2019-04-06T21:53:51.743Z,11.14
2019-04-06T21:56:23.099Z,11.11
2019-04-06T21:58:54.970Z,11.06
2019-04-06T22:01:26.432Z,11.32
2019-04-06T22:03:57.632Z,11.30
2019-04-06T22:06:28.612Z,11.26
2019-04-06T22:09:02.747Z,11.21
2019-04-06T22:11:35.461Z,11.04
2019-04-06T22:14:06.957Z,11.03
2019-04-06T22:16:38.120Z,10.88
2019-04-06T22:19:09.431Z,10.92
2019-04-06T22:21:42.884Z,10.78
2019-04-06T22:24:13.753Z,10.66
2019-04-06T22:26:47.155Z,10.88
2019-04-06T22:29:19.425Z,10.93
2019-04-06T22:31:51.727Z,10.81
2019-04-06T22:34:34.780Z,10.42
2019-04-06T22:36:55.997Z,10.59
2019-04-06T22:39:28.381Z,10.69
2019-04-06T22:42:00.412Z,10.56
2019-04-06T22:44:31.827Z,10.59
2019-04-06T22:47:03.807Z,10.60
2019-04-06T22:49:36.682Z,10.57
2019-04-06T22:52:07.911Z,10.55
2019-04-06T22:54:39.999Z,10.54
2019-04-06T22:57:12.140Z,10.49
2019-04-06T22:59:44.788Z,10.28
2019-04-06T23:02:17.575Z,10.22
2019-04-06T23:04:54.745Z,10.18
2019-04-06T23:07:27.092Z,10.09
2019-04-06T23:09:58.744Z,10.09
2019-04-06T23:12:29.315Z,10.00
2019-04-06T23:15:01.648Z,9.95
2019-04-06T23:17:32.261Z,10.00
2019-04-06T23:20:03.207Z,9.96
2019-04-06T23:22:33.458Z,10.07
2019-04-06T23:25:04.372Z,10.01
2019-04-06T23:27:35.320Z,9.85
2019-04-06T23:30:06.675Z,9.80
2019-04-06T23:32:37.439Z,9.81
2019-04-06T23:35:08.204Z,9.86
2019-04-06T23:37:39.113Z,9.81
2019-04-06T23:40:09.937Z,9.79
2019-04-06T23:42:40.698Z,9.74
2019-04-06T23:45:11.444Z,9.49
2019-04-06T23:47:41.745Z,9.48
2019-04-06T23:50:14.532Z,9.49
2019-04-06T23:52:45.071Z,9.41
2019-04-06T23:55:15.769Z,9.39
2019-04-06T23:57:46.586Z,9.24
